METAR Data
IDs: Format: Raw Decoded Include TAF

Data at: 1028 UTC 07 Dec 2022

KTLH 071025Z AUTO 00000KT 4SM BR OVC001 14/13 A3026 RMK AO2 T01390133